Time;durP1;ratioP1;P1;durP2;ratioP2;P2;SDS_P1;SDS_P2;PMS_P1;PMS_P2;Temp;Humidity;BMP_temperature;BMP_pressure;BME280_temperature;BME280_humidity;BME280_pressure;Samples;Min_cycle;Max_cycle;Signal;HPM_P1;HPM_P2
2021/07/15 00:02:22;;;;;;;18.08;10.28;;;;;;;23.00;70.70;99463.16;130157;1090;22492;-58
2021/07/15 00:04:51;;;;;;;18.10;10.50;;;;;;;23.00;70.81;99463.16;130038;1090;114232;-58
2021/07/15 00:07:20;;;;;;;16.93;10.35;;;;;;;22.98;70.87;99468.25;130118;1090;22639;-57
2021/07/15 00:09:50;;;;;;;19.05;9.98;;;;;;;22.97;71.10;99463.02;130121;1090;22558;-58
2021/07/15 00:12:19;;;;;;;13.70;10.23;;;;;;;22.95;70.77;99459.77;130030;1090;114369;-58
2021/07/15 00:14:49;;;;;;;12.80;10.18;;;;;;;22.93;71.13;99451.80;130122;1090;22600;-58
2021/07/15 00:17:18;;;;;;;17.23;9.80;;;;;;;22.90;71.16;99458.85;130010;1090;114090;-58
2021/07/15 00:20:11;;;;;;;19.88;9.68;;;;;;;22.88;71.12;99454.78;130172;1090;22682;-57
2021/07/15 00:22:41;;;;;;;20.83;10.80;;;;;;;22.87;71.24;99467.05;130127;1090;22685;-58
2021/07/15 00:25:16;;;;;;;16.85;10.48;;;;;;;22.83;71.41;99458.58;130042;1090;113953;-58
2021/07/15 00:27:46;;;;;;;25.50;11.05;;;;;;;22.81;71.45;99458.09;130062;1089;23111;-58
2021/07/15 00:30:15;;;;;;;30.23;12.13;;;;;;;22.81;71.40;99448.95;130046;1089;114118;-58
2021/07/15 00:32:44;;;;;;;24.13;11.10;;;;;;;22.82;71.46;99459.73;130088;1090;22603;-58
2021/07/15 00:35:33;;;;;;;27.18;12.13;;;;;;;22.82;71.47;99459.73;130022;1089;114308;-58
2021/07/15 00:38:03;;;;;;;30.10;11.48;;;;;;;22.81;71.41;99463.66;130058;1089;23078;-58
2021/07/15 00:40:32;;;;;;;23.40;11.35;;;;;;;22.81;71.43;99458.09;130136;1088;22569;-58
2021/07/15 00:43:04;;;;;;;26.30;11.65;;;;;;;22.81;71.38;99460.88;129986;1089;114110;-58
2021/07/15 00:45:33;;;;;;;23.35;11.53;;;;;;;22.81;71.43;99452.55;130147;1089;23618;-58
2021/07/15 00:48:02;;;;;;;20.98;11.28;;;;;;;22.79;71.65;99463.20;130018;1089;114161;-58
2021/07/15 00:50:42;;;;;;;18.68;10.35;;;;;;;22.77;71.66;99461.92;130171;1089;22522;-58
2021/07/15 00:53:11;;;;;;;19.68;11.33;;;;;;;22.74;71.61;99457.82;130012;1090;115211;-59
2021/07/15 00:55:42;;;;;;;18.50;11.33;;;;;;;22.71;71.59;99455.72;130181;1090;22621;-58
2021/07/15 00:58:31;;;;;;;12.93;10.05;;;;;;;22.69;71.61;99458.02;130066;1089;22741;-58
2021/07/15 01:01:00;;;;;;;16.55;11.45;;;;;;;;;;130077;1089;114104;-58
2021/07/15 01:03:29;;;;;;;19.48;10.83;;;;;;;22.63;71.75;99453.84;130165;1090;22599;-58
2021/07/15 01:06:20;;;;;;;12.48;10.65;;;;;;;22.63;71.84;99461.36;130064;1089;113900;-58
2021/07/15 01:08:50;;;;;;;19.53;10.90;;;;;;;22.60;72.04;99456.48;130126;1089;22645;-58
2021/07/15 01:11:54;;;;;;;20.83;10.63;;;;;;;22.58;72.02;99451.25;130060;1090;114332;-57
2021/07/15 01:14:27;;;;;;;14.80;10.83;;;;;;;22.53;72.19;99452.27;130169;1089;22538;-58
2021/07/15 01:17:11;;;;;;;18.15;10.75;;;;;;;22.50;72.19;99461.30;129955;1090;114281;-57
2021/07/15 01:19:57;;;;;;;15.05;10.00;;;;;;;22.47;72.40;99461.16;130058;1090;23549;-57
2021/07/15 01:22:36;;;;;;;17.45;10.68;;;;;;;22.47;72.47;99467.52;130110;1090;22537;-57
2021/07/15 01:25:35;;;;;;;14.30;10.60;;;;;;;22.46;72.55;99470.63;129979;1090;114170;-58
2021/07/15 01:29:28;;;;;;;17.75;11.20;;;;;;;22.43;72.46;99463.78;125630;1092;26265;-57
2021/07/15 01:32:05;;;;;;;16.88;12.60;;;;;;;22.39;72.54;99465.61;129823;1093;22537;-58
2021/07/15 01:34:34;;;;;;;14.13;11.20;;;;;;;22.37;72.62;99469.86;130079;1090;23927;-58
2021/07/15 01:37:04;;;;;;;31.05;11.15;;;;;;;22.33;72.80;99460.61;130028;1093;113944;-57
2021/07/15 01:39:35;;;;;;;26.05;11.30;;;;;;;22.30;72.96;99459.31;130089;1093;22683;-57
2021/07/15 01:42:05;;;;;;;18.20;11.40;;;;;;;22.27;72.98;99462.75;129980;1093;113939;-57
2021/07/15 01:44:34;;;;;;;20.70;11.35;;;;;;;22.25;73.09;99458.69;130066;1093;22622;-58
2021/07/15 01:47:03;;;;;;;27.50;12.53;;;;;;;22.21;73.08;99464.94;129916;1090;115253;-58
2021/07/15 01:49:33;;;;;;;23.10;12.30;;;;;;;22.18;73.19;99462.83;130071;1093;22569;-58
2021/07/15 01:52:04;;;;;;;20.78;11.95;;;;;;;22.17;73.37;99463.97;130110;1090;22576;-58
2021/07/15 01:54:34;;;;;;;25.98;12.28;;;;;;;22.15;73.43;99462.67;129954;1093;113994;-58
2021/07/15 01:57:04;;;;;;;34.10;11.75;;;;;;;22.12;73.41;99466.93;130077;1092;23415;-58
2021/07/15 01:59:40;;;;;;;20.85;13.28;;;;;;;22.09;73.38;99473.14;129963;1092;114067;-58
2021/07/15 02:02:09;;;;;;;21.65;12.53;;;;;;;22.06;73.57;99471.06;130092;1093;22622;-58
2021/07/15 02:04:39;;;;;;;17.25;11.63;;;;;;;22.03;73.68;99482.02;129839;1093;22530;-58
2021/07/15 02:07:08;;;;;;;24.68;12.40;;;;;;;21.97;73.80;99477.76;130017;1091;113248;-57
2021/07/15 02:09:38;;;;;;;36.35;13.33;;;;;;;21.99;73.77;99478.24;130102;1093;22543;-58
2021/07/15 02:12:07;;;;;;;47.88;14.40;;;;;;;21.95;73.77;99478.09;129935;1092;114324;-58
2021/07/15 02:14:35;;;;;;;21.53;14.20;;;;;;;21.92;73.94;99469.65;130107;1093;22533;-57
2021/07/15 02:17:09;;;;;;;38.50;12.93;;;;;;;21.90;73.96;99471.94;129943;1092;114097;-58
2021/07/15 02:19:41;;;;;;;20.90;12.08;;;;;;;21.88;74.12;99480.59;130063;1090;22534;-58
2021/07/15 02:22:10;;;;;;;22.93;13.33;;;;;;;21.85;73.93;99484.84;130079;1093;22524;-57
2021/07/15 02:24:46;;;;;;;24.10;12.18;;;;;;;21.84;74.27;99483.21;129983;1092;113937;-58
2021/07/15 02:27:22;;;;;;;25.20;12.35;;;;;;;21.84;74.47;99474.08;130077;1090;23544;-57
2021/07/15 02:29:51;;;;;;;20.00;11.08;;;;;;;21.82;74.41;99481.91;129974;1092;114201;-59
2021/07/15 02:32:44;;;;;;;20.43;12.58;;;;;;;21.82;74.65;99479.14;130047;1093;22628;-58
2021/07/15 02:35:15;;;;;;;21.95;12.98;;;;;;;21.82;74.61;99468.86;129963;1093;114281;-58
2021/07/15 02:37:44;;;;;;;19.63;11.95;;;;;;;21.82;74.76;99479.95;130055;1092;22535;-58
2021/07/15 02:40:15;;;;;;;21.55;12.70;;;;;;;21.83;74.82;99477.99;130037;1093;22513;-58
2021/07/15 02:42:45;;;;;;;22.90;13.18;;;;;;;21.84;74.90;99471.30;129971;1093;113688;-58
2021/07/15 02:45:19;;;;;;;22.98;12.33;;;;;;;21.86;75.02;99485.66;130084;1093;23296;-58
2021/07/15 02:47:49;;;;;;;33.45;13.43;;;;;;;21.88;75.13;99472.27;129962;1090;113939;-58
2021/07/15 02:50:38;;;;;;;21.20;12.10;;;;;;;21.92;75.27;99475.20;130070;1093;22542;-58
2021/07/15 02:53:06;;;;;;;20.70;12.60;;;;;;;21.96;75.28;99481.67;129970;1090;114361;-58
2021/07/15 02:55:38;;;;;;;28.15;12.60;;;;;;;21.99;75.47;99481.02;130109;1090;23115;-58
2021/07/15 02:58:16;;;;;;;32.68;13.75;;;;;;;22.04;75.37;99481.68;130011;1093;22597;-58
2021/07/15 03:00:54;;;;;;;22.35;13.38;;;;;;;22.08;75.57;99479.84;129987;1093;114323;-57
2021/07/15 03:03:28;;;;;;;28.58;13.78;;;;;;;22.13;75.59;99485.21;130096;1093;22704;-58
2021/07/15 03:06:10;;;;;;;26.43;12.90;;;;;;;22.17;75.62;99477.84;130024;1092;114044;-58
2021/07/15 03:08:56;;;;;;;25.58;13.18;;;;;;;22.22;75.76;99483.19;130069;1090;23163;-58
2021/07/15 03:11:31;;;;;;;27.57;12.97;;;;;;;22.29;76.13;99473.52;129982;1093;114941;-58
2021/07/15 03:14:00;;;;;;;31.00;14.08;;;;;;;22.33;75.98;99477.27;130087;1093;22575;-58
2021/07/15 03:16:31;;;;;;;18.28;13.38;;;;;;;22.39;75.92;99473.12;130091;1093;22543;-58
2021/07/15 03:19:03;;;;;;;36.65;13.80;;;;;;;22.45;75.80;99478.14;129975;1090;113955;-58
2021/07/15 03:21:32;;;;;;;26.20;12.68;;;;;;;22.53;76.00;99482.81;130116;1093;22615;-58
2021/07/15 03:24:21;;;;;;;24.13;12.38;;;;;;;22.62;75.99;99485.54;129976;1093;114007;-57
2021/07/15 03:26:50;;;;;;;23.40;13.73;;;;;;;22.70;75.78;99484.64;130075;1092;22553;-58
2021/07/15 03:29:19;;;;;;;28.28;13.95;;;;;;;22.79;75.82;99490.99;129994;1090;114165;-58
2021/07/15 03:31:48;;;;;;;21.30;13.58;;;;;;;22.88;75.64;99486.16;130099;1090;22970;-58
2021/07/15 03:34:17;;;;;;;19.08;13.10;;;;;;;22.97;75.22;99482.48;130053;1090;22611;-58
2021/07/15 03:37:06;;;;;;;26.18;13.90;;;;;;;23.09;74.81;99488.08;130020;1090;114460;-58
2021/07/15 03:39:37;;;;;;;26.70;13.78;;;;;;;23.18;74.15;99483.27;130046;1093;22547;-58
2021/07/15 03:42:06;;;;;;;24.68;14.05;;;;;;;23.28;73.50;99485.60;129969;1090;114217;-58
2021/07/15 03:44:37;;;;;;;20.13;14.18;;;;;;;23.38;72.98;99485.16;130139;1090;23105;-57
2021/07/15 03:47:07;;;;;;;21.77;13.03;;;;;;;23.50;72.54;99487.17;129971;1090;113890;-58
2021/07/15 03:49:37;;;;;;;25.98;13.40;;;;;;;23.61;72.43;99491.16;130061;1090;22623;-58
2021/07/15 03:52:06;;;;;;;24.70;14.48;;;;;;;23.72;72.01;99491.52;130131;1093;23726;-57
2021/07/15 03:54:35;;;;;;;22.25;13.80;;;;;;;23.82;72.28;99489.08;129961;1093;114191;-58
2021/07/15 03:57:05;;;;;;;20.65;13.70;;;;;;;23.91;71.88;99498.16;130094;1090;23266;-58
2021/07/15 03:59:34;;;;;;;15.40;13.73;;;;;;;24.02;71.08;99497.68;129869;1093;114278;-58
2021/07/15 04:02:05;;;;;;;26.58;14.48;;;;;;;24.10;70.82;99497.55;129779;1093;23522;-58
2021/07/15 04:04:35;;;;;;;21.30;12.93;;;;;;;24.18;70.18;99495.83;129948;1093;23390;-58
2021/07/15 04:07:05;;;;;;;18.08;13.63;;;;;;;24.26;70.29;99490.15;129740;1092;113922;-58
2021/07/15 04:09:50;;;;;;;31.18;12.98;;;;;;;24.37;70.14;99492.48;129927;1093;22558;-58
2021/07/15 04:12:21;;;;;;;19.88;13.25;;;;;;;24.46;69.28;99495.94;129713;1093;113792;-58
2021/07/15 04:14:58;;;;;;;15.35;12.68;;;;;;;24.54;69.00;99490.22;129853;1093;22622;-58
2021/07/15 04:17:29;;;;;;;17.93;13.00;;;;;;;24.61;68.98;99478.48;129727;1093;114161;-58
2021/07/15 04:20:00;;;;;;;14.65;11.98;;;;;;;24.71;68.09;99485.53;129759;1093;22563;-58
2021/07/15 04:22:51;;;;;;;16.38;11.90;;;;;;;24.79;67.97;99490.17;129818;1093;22797;-58
2021/07/15 04:25:21;;;;;;;15.68;12.63;;;;;;;24.87;67.57;99487.23;129814;1092;113847;-58
2021/07/15 04:27:56;;;;;;;20.70;12.15;;;;;;;24.95;67.47;99477.14;129809;1093;22569;-58
2021/07/15 04:30:25;;;;;;;19.90;11.80;;;;;;;25.03;67.20;99476.16;129875;1091;113990;-58
2021/07/15 04:33:02;;;;;;;22.73;12.43;;;;;;;25.10;66.57;99486.72;130075;1090;22548;-58
2021/07/15 04:35:32;;;;;;;13.13;11.28;;;;;;;25.19;66.33;99470.63;129943;1090;114048;-58
2021/07/15 04:38:01;;;;;;;15.08;11.40;;;;;;;25.25;65.55;99461.63;130100;1091;23826;-58
2021/07/15 04:40:31;;;;;;;18.50;12.33;;;;;;;25.33;65.86;99474.61;130077;1090;23105;-58
2021/07/15 04:43:06;;;;;;;17.98;13.40;;;;;;;25.40;65.17;99468.40;129967;1090;114057;-58
2021/07/15 04:45:38;;;;;;;22.03;14.05;;;;;;;25.47;64.56;99457.44;130128;1090;22601;-58
2021/07/15 04:48:10;;;;;;;28.18;19.70;;;;;;;25.54;64.32;99454.01;129948;1091;114348;-58
2021/07/15 04:50:39;;;;;;;20.20;17.25;;;;;;;25.56;64.28;99444.12;130037;1090;22587;-58
2021/07/15 04:53:09;;;;;;;24.55;16.28;;;;;;;25.69;63.92;99454.05;129648;1092;115137;-58
2021/07/15 04:55:38;;;;;;;22.58;16.03;;;;;;;25.77;63.31;99455.05;129761;1093;22539;-58
2021/07/15 04:58:07;;;;;;;18.63;14.98;;;;;;;25.85;63.62;99450.44;129732;1092;22626;-58
2021/07/15 05:00:36;;;;;;;45.48;15.18;;;;;;;25.91;63.52;99454.59;129694;1093;114057;-58
2021/07/15 05:03:21;;;;;;;20.33;12.00;;;;;;;25.99;63.37;99454.38;129728;1091;22543;-58
2021/07/15 05:05:50;;;;;;;16.85;12.35;;;;;;;26.08;62.73;99456.19;129633;1093;114362;-58
2021/07/15 05:08:39;;;;;;;28.05;13.43;;;;;;;26.17;62.13;99460.39;129743;1092;22559;-58
2021/07/15 05:11:08;;;;;;;25.03;13.25;;;;;;;26.27;61.98;99459.02;129670;1093;114600;-59
2021/07/15 05:13:37;;;;;;;22.03;11.33;;;;;;;26.39;61.71;99456.97;129713;1093;22537;-58
2021/07/15 05:16:06;;;;;;;17.53;10.98;;;;;;;26.54;62.01;99462.87;129777;1092;22545;-59
2021/07/15 05:18:35;;;;;;;49.35;12.80;;;;;;;26.70;61.11;99460.80;129664;1093;114453;-59
2021/07/15 05:21:04;;;;;;;21.25;10.93;;;;;;;26.87;60.28;99457.56;129780;1092;22603;-59
2021/07/15 05:23:33;;;;;;;15.20;10.73;;;;;;;27.13;59.46;99464.48;129649;1092;114405;-59
2021/07/15 05:26:06;;;;;;;42.48;10.75;;;;;;;27.39;58.87;99465.42;130137;1090;23600;-59
2021/07/15 05:28:35;;;;;;;20.35;10.25;;;;;;;27.70;58.16;99463.60;130072;1090;22536;-59
2021/07/15 05:31:13;;;;;;;19.90;8.75;;;;;;;28.02;57.77;99452.89;130005;1090;113977;-59
2021/07/15 05:33:42;;;;;;;40.58;10.03;;;;;;;28.35;57.12;99457.84;130112;1090;22566;-59
2021/07/15 05:36:12;;;;;;;22.00;10.23;;;;;;;28.71;56.29;99459.14;129986;1090;113925;-59
2021/07/15 05:38:42;;;;;;;29.88;9.03;;;;;;;29.06;55.01;99458.78;130093;1089;22534;-59
2021/07/15 05:41:11;;;;;;;13.45;8.60;;;;;;;29.38;54.03;99453.52;130033;1090;113657;-59
2021/07/15 05:43:41;;;;;;;23.98;9.25;;;;;;;29.68;53.50;99451.44;130082;1090;22546;-60
2021/07/15 05:46:10;;;;;;;13.93;8.03;;;;;;;29.98;52.74;99453.31;130069;1093;22965;-59
2021/07/15 05:48:39;;;;;;;27.15;9.93;;;;;;;30.30;52.06;99459.17;130020;1093;113946;-59
2021/07/15 05:51:08;;;;;;;23.58;8.40;;;;;;;30.59;51.24;99455.33;130124;1093;23295;-59
2021/07/15 05:53:38;;;;;;;13.33;8.78;;;;;;;30.87;50.79;99449.05;129990;1090;114381;-59
2021/07/15 05:56:07;;;;;;;12.93;7.93;;;;;;;31.14;49.29;99452.38;130112;1090;22607;-59
2021/07/15 05:58:37;;;;;;;16.38;8.68;;;;;;;31.40;48.61;99442.78;130057;1093;22760;-59
2021/07/15 06:01:07;;;;;;;130.23;19.28;;;;;;;31.64;47.75;99456.08;129976;1093;113981;-60
2021/07/15 06:03:36;;;;;;;17.10;8.00;;;;;;;31.87;47.35;99448.08;130139;1090;22509;-59
2021/07/15 06:06:05;;;;;;;12.10;7.38;;;;;;;32.05;46.80;99450.86;129921;1090;113784;-59
2021/07/15 06:08:34;;;;;;;16.50;7.00;;;;;;;32.20;46.16;99451.68;130156;1090;22567;-59
2021/07/15 06:11:16;;;;;;;15.13;7.80;;;;;;;32.31;46.22;99447.66;129928;1093;114057;-59
2021/07/15 06:13:46;;;;;;;16.78;8.00;;;;;;;32.37;45.53;99444.41;130122;1090;22544;-59
2021/07/15 06:16:14;;;;;;;12.75;8.08;;;;;;;32.35;45.60;99436.34;130070;1090;22632;-59
2021/07/15 06:18:43;;;;;;;13.83;8.03;;;;;;;32.29;45.83;99435.17;129999;1090;113977;-59
2021/07/15 06:21:12;;;;;;;12.80;7.53;;;;;;;32.17;45.98;99435.56;130061;1090;22643;-59
2021/07/15 06:23:41;;;;;;;12.28;7.18;;;;;;;32.04;46.24;99439.98;130006;1090;114191;-59
2021/07/15 06:26:10;;;;;;;14.13;7.53;;;;;;;31.90;46.06;99435.98;130086;1090;22589;-59
2021/07/15 06:28:39;;;;;;;10.10;6.43;;;;;;;31.73;46.09;99430.38;130051;1090;23540;-59
2021/07/15 06:31:08;;;;;;;7.87;6.63;;;;;;;31.58;45.91;99435.97;129917;1092;115235;-59
2021/07/15 06:33:38;;;;;;;12.15;7.20;;;;;;;31.46;46.20;99429.89;130094;1090;22584;-59
2021/07/15 06:36:07;;;;;;;12.33;5.75;;;;;;;31.34;46.62;99427.47;129946;1090;114150;-60
2021/07/15 06:38:37;;;;;;;78.43;12.20;;;;;;;31.23;46.26;99428.27;130127;1090;22693;-59
2021/07/15 06:41:08;;;;;;;13.05;6.33;;;;;;;31.13;46.36;99431.06;129964;1090;114370;-60
2021/07/15 06:43:39;;;;;;;11.13;6.65;;;;;;;31.03;47.04;99429.78;130104;1090;23136;-59
2021/07/15 06:46:08;;;;;;;32.60;8.17;;;;;;;30.94;46.92;99430.17;130019;1090;22637;-59
2021/07/15 06:48:37;;;;;;;20.33;8.20;;;;;;;30.87;47.50;99427.34;129996;1090;114380;-59
2021/07/15 06:51:07;;;;;;;8.28;6.53;;;;;;;30.84;47.39;99427.33;130076;1089;22670;-59
2021/07/15 06:53:36;;;;;;;9.80;6.43;;;;;;;30.77;47.54;99418.84;129992;1090;113792;-59
2021/07/15 06:56:05;;;;;;;13.40;7.08;;;;;;;30.75;47.45;99426.87;130102;1090;22519;-59
2021/07/15 06:58:34;;;;;;;22.65;7.83;;;;;;;30.71;47.71;99426.07;130113;1090;22520;-59
2021/07/15 07:01:03;;;;;;;8.88;6.53;;;;;;;30.69;48.24;99417.22;129999;1090;113916;-59
2021/07/15 07:03:32;;;;;;;8.68;6.70;;;;;;;30.66;47.95;99415.19;130126;1090;23364;-59
2021/07/15 07:06:00;;;;;;;12.80;6.48;;;;;;;30.65;47.75;99419.20;130009;1090;113768;-59
2021/07/15 07:08:29;;;;;;;10.03;7.70;;;;;;;30.63;48.70;99419.59;130112;1090;22557;-60
2021/07/15 07:10:58;;;;;;;8.25;6.63;;;;;;;30.63;47.86;99430.84;130079;1090;114287;-60
2021/07/15 07:13:27;;;;;;;10.63;6.80;;;;;;;30.63;48.04;99428.03;130108;1093;22687;-59
2021/07/15 07:16:07;;;;;;;22.78;8.05;;;;;;;30.65;47.93;99424.83;130117;1090;22472;-59
2021/07/15 07:18:36;;;;;;;10.53;7.08;;;;;;;30.65;47.20;99428.45;129958;1090;113983;-59
2021/07/15 07:21:05;;;;;;;11.73;6.95;;;;;;;30.65;47.32;99427.64;130107;1089;23501;-59
2021/07/15 07:23:34;;;;;;;8.90;6.63;;;;;;;30.66;47.82;99426.44;129986;1090;114158;-59
2021/07/15 07:26:02;;;;;;;10.05;6.45;;;;;;;30.68;47.53;99429.67;130114;1090;22583;-58
2021/07/15 07:28:31;;;;;;;6.65;5.83;;;;;;;30.69;48.10;99432.09;130060;1089;23515;-59
2021/07/15 07:31:01;;;;;;;12.43;6.93;;;;;;;30.72;47.17;99428.48;130014;1090;114267;-59
2021/07/15 07:33:30;;;;;;;10.23;7.00;;;;;;;30.73;47.22;99427.26;130065;1093;22639;-59
2021/07/15 07:35:59;;;;;;;7.80;6.98;;;;;;;30.77;47.79;99424.47;129988;1093;113811;-59
2021/07/15 07:38:28;;;;;;;12.57;6.83;;;;;;;30.79;47.35;99413.63;130105;1089;22734;-59
2021/07/15 07:40:57;;;;;;;19.58;7.40;;;;;;;30.81;46.84;99423.29;130119;1090;22571;-59
2021/07/15 07:43:26;;;;;;;11.35;7.35;;;;;;;30.84;47.66;99427.33;129980;1090;113857;-59
2021/07/15 07:45:56;;;;;;;10.23;6.75;;;;;;;30.87;46.67;99424.53;130129;1090;23381;-59
2021/07/15 07:48:25;;;;;;;13.23;7.08;;;;;;;30.88;46.49;99436.56;129982;1091;114056;-59
2021/07/15 07:50:57;;;;;;;11.28;7.08;;;;;;;30.91;47.41;99438.59;130097;1090;23096;-58
2021/07/15 07:53:28;;;;;;;8.98;6.50;;;;;;;30.94;46.01;99432.17;129986;1090;114149;-60
2021/07/15 07:55:57;;;;;;;15.33;7.03;;;;;;;30.95;45.88;99428.16;130113;1090;23389;-60
2021/07/15 07:58:27;;;;;;;8.85;6.28;;;;;;;30.95;46.07;99433.78;130076;1093;22533;-60
2021/07/15 08:00:56;;;;;;;12.80;7.03;;;;;;;30.97;45.98;99430.58;130004;1090;114650;-60
2021/07/15 08:03:24;;;;;;;9.40;6.25;;;;;;;30.97;45.42;99425.76;130090;1090;23745;-60
2021/07/15 08:05:55;;;;;;;21.28;7.88;;;;;;;30.99;46.15;99431.80;129965;1090;113779;-60
2021/07/15 08:08:26;;;;;;;13.03;7.65;;;;;;;31.02;45.34;99425.35;130136;1090;22519;-60
2021/07/15 08:10:55;;;;;;;8.48;7.15;;;;;;;31.06;45.15;99431.00;130055;1090;22537;-59
2021/07/15 08:13:24;;;;;;;16.90;7.18;;;;;;;31.08;44.54;99428.59;129991;1090;115374;-59
2021/07/15 08:15:53;;;;;;;8.15;6.75;;;;;;;31.11;44.16;99430.65;130059;1090;22677;-59
2021/07/15 08:18:23;;;;;;;10.75;6.23;;;;;;;31.13;45.02;99426.23;130003;1090;113858;-59
2021/07/15 08:20:52;;;;;;;46.88;8.48;;;;;;;31.17;45.14;99429.04;130092;1090;23293;-59
2021/07/15 08:23:25;;;;;;;15.93;7.20;;;;;;;31.20;45.46;99433.88;130022;1090;114103;-60
2021/07/15 08:25:54;;;;;;;8.48;6.50;;;;;;;31.24;44.93;99429.07;130071;1093;22615;-59
2021/07/15 08:28:23;;;;;;;7.80;6.53;;;;;;;31.26;44.63;99433.10;130104;1090;22540;-60
2021/07/15 08:30:51;;;;;;;15.75;7.33;;;;;;;31.28;43.97;99422.25;129944;1092;113791;-58
2021/07/15 08:33:20;;;;;;;12.93;6.50;;;;;;;31.32;44.02;99422.23;128930;1090;28264;-63
2021/07/15 08:35:50;;;;;;;8.18;6.58;;;;;;;31.36;44.11;99419.43;129862;1090;113791;-63
2021/07/15 08:38:20;;;;;;;9.98;6.75;;;;;;;31.38;44.29;99426.28;130065;1090;22570;-63
2021/07/15 08:40:50;;;;;;;16.13;6.70;;;;;;;31.42;44.16;99429.11;130064;1090;22583;-65
2021/07/15 08:43:18;;;;;;;9.25;6.80;;;;;;;31.44;44.10;99426.70;130020;1090;114249;-63
2021/07/15 08:45:47;;;;;;;11.75;6.60;;;;;;;31.46;43.78;99424.27;130079;1090;22570;-63
2021/07/15 08:48:18;;;;;;;16.73;6.70;;;;;;;31.46;42.67;99422.25;129969;1090;114760;-63
2021/07/15 08:50:49;;;;;;;11.95;6.18;;;;;;;31.46;42.54;99425.06;130059;1090;22657;-63
2021/07/15 08:53:22;;;;;;;29.08;9.28;;;;;;;31.44;42.28;99421.06;130017;1089;113886;-62
2021/07/15 08:58:39;;;;;;;12.50;6.08;;;;;;;31.37;42.28;99421.05;130073;1090;22509;-63
2021/07/15 09:01:08;;;;;;;14.55;6.50;;;;;;;31.33;42.43;99414.59;129973;1090;113920;-62
2021/07/15 09:03:39;;;;;;;8.88;6.28;;;;;;;31.32;43.23;99421.42;130098;1090;22523;-63
2021/07/15 09:06:08;;;;;;;9.23;6.48;;;;;;;31.31;43.21;99417.03;129911;1092;114237;-63
2021/07/15 09:08:37;;;;;;;9.83;7.30;;;;;;;31.31;43.25;99420.63;130118;1090;23311;-63
2021/07/15 09:11:07;;;;;;;8.95;6.50;;;;;;;31.34;43.57;99410.58;129932;1093;114317;-62
2021/07/15 09:13:35;;;;;;;10.40;6.93;;;;;;;31.38;42.86;99419.84;130104;1090;22687;-62
2021/07/15 09:16:13;;;;;;;11.73;6.03;;;;;;;31.41;43.08;99402.95;130086;1093;22522;-63
2021/07/15 09:18:57;;;;;;;8.68;6.53;;;;;;;31.45;42.46;99403.74;130011;1090;113989;-62
2021/07/15 09:21:34;;;;;;;6.93;6.20;;;;;;;31.50;42.89;99408.98;130081;1088;23069;-63
2021/07/15 09:24:24;;;;;;;10.28;6.18;;;;;;;31.54;42.81;99404.17;129988;1093;114119;-62
2021/07/15 09:27:16;;;;;;;8.88;6.83;;;;;;;31.58;42.81;99398.55;130086;1090;22558;-63
2021/07/15 09:29:46;;;;;;;10.35;8.10;;;;;;;31.63;43.04;99400.94;129970;1092;114359;-63
2021/07/15 09:32:16;;;;;;;10.10;5.88;;;;;;;31.65;42.57;99392.13;130053;1090;22519;-63
2021/07/15 09:34:45;;;;;;;8.38;6.65;;;;;;;31.67;41.80;99398.97;130102;1093;23643;-63
2021/07/15 09:37:16;;;;;;;13.28;8.00;;;;;;;31.70;43.17;99405.81;129967;1090;113744;-63
2021/07/15 09:39:49;;;;;;;8.50;6.60;;;;;;;31.72;42.27;99397.77;128949;1090;26305;-60
2021/07/15 09:42:37;;;;;;;8.58;6.08;;;;;;;31.75;41.94;99403.38;130016;1090;114051;-60
2021/07/15 09:45:09;;;;;;;12.38;6.55;;;;;;;31.80;41.74;99407.81;130067;1088;22540;-61
2021/07/15 09:47:58;;;;;;;11.83;7.08;;;;;;;31.81;42.09;99386.88;129966;1090;113958;-61
2021/07/15 09:50:27;;;;;;;8.93;6.83;;;;;;;31.84;42.73;99394.53;130099;1090;22539;-61
2021/07/15 09:53:14;;;;;;;10.13;6.30;;;;;;;31.87;42.41;99391.72;130075;1089;22536;-61
2021/07/15 09:56:04;;;;;;;7.03;5.73;;;;;;;31.90;42.14;99384.45;130094;1090;22564;-61
2021/07/15 09:58:36;;;;;;;12.23;6.95;;;;;;;31.94;41.61;99393.70;130119;1088;22555;-61
2021/07/15 10:01:07;;;;;;;16.53;6.45;;;;;;;31.95;41.58;99393.30;129984;1090;113956;-61
2021/07/15 10:03:40;;;;;;;8.95;6.03;;;;;;;31.97;40.88;99390.89;130080;1090;22656;-61
2021/07/15 10:06:15;;;;;;;11.20;6.65;;;;;;;32.00;41.35;99385.66;129985;1090;113863;-61
2021/07/15 10:08:54;;;;;;;9.40;6.00;;;;;;;32.02;40.99;99392.50;130101;1089;22624;-61
2021/07/15 10:11:29;;;;;;;11.75;6.38;;;;;;;32.03;41.03;99396.91;130093;1093;23436;-61
2021/07/15 10:14:01;;;;;;;15.43;7.08;;;;;;;32.04;40.80;99378.78;129925;1090;113687;-61
2021/07/15 10:16:52;;;;;;;12.70;6.73;;;;;;;32.04;40.36;99378.78;130141;1090;23603;-61
2021/07/15 10:19:25;;;;;;;18.90;6.88;;;;;;;32.06;40.83;99378.38;129962;1090;114705;-61
2021/07/15 10:22:07;;;;;;;13.28;6.10;;;;;;;32.09;40.72;99377.58;130098;1089;22648;-61
2021/07/15 10:24:37;;;;;;;10.28;6.38;;;;;;;32.12;40.53;99371.94;129958;1090;113966;-61
2021/07/15 10:27:11;;;;;;;12.00;6.50;;;;;;;32.13;40.38;99376.36;130093;1090;22556;-61
2021/07/15 10:29:59;;;;;;;9.10;6.13;;;;;;;32.13;40.70;99369.92;129925;1093;114140;-61
2021/07/15 10:32:29;;;;;;;7.83;6.05;;;;;;;32.18;40.48;99375.92;130074;1093;22538;-61
2021/07/15 10:34:58;;;;;;;9.23;6.18;;;;;;;32.21;40.37;99377.16;129998;1090;23126;-61
2021/07/15 10:37:27;;;;;;;16.88;6.33;;;;;;;32.22;39.95;99371.13;129943;1090;114228;-61
2021/07/15 10:39:58;;;;;;;19.05;6.90;;;;;;;32.22;39.96;99371.13;130055;1090;22528;-63
2021/07/15 10:42:28;;;;;;;30.08;8.45;;;;;;;32.21;40.83;99371.53;129579;1093;114228;-64
2021/07/15 10:44:57;;;;;;;13.33;6.08;;;;;;;32.19;39.87;99371.93;129713;1092;23519;-63
2021/07/15 10:47:26;;;;;;;8.53;5.93;;;;;;;32.20;40.88;99372.73;129735;1092;22607;-63
2021/07/15 10:49:55;;;;;;;15.05;6.63;;;;;;;32.20;40.27;99379.18;129595;1092;116028;-63
2021/07/15 10:52:24;;;;;;;7.25;5.55;;;;;;;32.21;39.78;99366.69;129673;1093;22602;-63
2021/07/15 10:54:55;;;;;;;8.23;6.10;;;;;;;32.22;39.38;99364.67;129662;1092;113871;-63
2021/07/15 10:57:25;;;;;;;7.70;5.78;;;;;;;32.25;39.82;99366.69;129703;1092;22750;-63
2021/07/15 11:00:21;;;;;;;6.75;6.05;;;;;;;32.28;39.46;99363.87;129586;1093;114243;-63
2021/07/15 11:03:09;;;;;;;14.68;6.35;;;;;;;32.29;40.40;99361.85;129689;1093;22747;-63
2021/07/15 11:05:56;;;;;;;10.35;6.15;;;;;;;32.31;39.17;99357.42;129689;1093;115129;-61
2021/07/15 11:08:48;;;;;;;9.08;5.98;;;;;;;32.34;39.65;99355.77;129727;1092;22561;-63
2021/07/15 11:11:34;;;;;;;10.30;6.08;;;;;;;32.35;39.55;99351.73;129752;1092;23723;-63
2021/07/15 11:14:07;;;;;;;12.15;6.10;;;;;;;32.33;38.97;99349.33;129741;1092;113790;-63
2021/07/15 11:16:50;;;;;;;13.58;6.90;;;;;;;32.33;40.22;99346.50;130032;1092;22585;-63
2021/07/15 11:19:52;;;;;;;10.30;6.15;;;;;;;32.35;39.28;99346.10;129680;1092;116823;-63
2021/07/15 11:22:45;;;;;;;11.88;6.33;;;;;;;32.35;40.12;99350.94;130086;1089;22560;-63
2021/07/15 11:25:36;;;;;;;11.15;6.03;;;;;;;32.35;39.16;99348.92;129908;1090;114808;-64
2021/07/15 11:28:25;;;;;;;15.53;6.53;;;;;;;32.34;39.75;99336.03;130083;1090;22561;-63
2021/07/15 11:30:59;;;;;;;9.18;5.60;;;;;;;32.30;40.01;99326.80;129908;1090;114497;-63
2021/07/15 11:33:47;;;;;;;9.38;6.23;;;;;;;32.34;39.57;99341.67;130073;1089;22613;-63
2021/07/15 11:36:26;;;;;;;9.73;6.40;;;;;;;32.34;38.90;99333.21;130002;1090;114439;-63
2021/07/15 11:39:00;;;;;;;11.28;7.68;;;;;;;32.35;39.05;99328.38;130043;1093;22616;-62
2021/07/15 11:41:52;;;;;;;8.75;6.30;;;;;;;32.38;39.54;99338.84;129976;1089;114524;-63
2021/07/15 11:44:21;;;;;;;7.97;5.93;;;;;;;32.38;39.82;99336.83;130063;1088;23754;-63